createdAt,value
2023-03-16T00:07:17.357Z,2.90
2023-03-16T00:22:44.310Z,2.53
2023-03-16T00:30:18.617Z,2.67
2023-03-16T00:37:57.438Z,2.83
2023-03-16T00:45:32.610Z,3.70
2023-03-16T00:53:07.860Z,3.03
2023-03-16T01:00:43.156Z,2.88
2023-03-16T01:16:10.857Z,3.40
2023-03-16T01:23:46.550Z,2.53
2023-03-16T01:31:20.605Z,2.90
2023-03-16T01:38:55.906Z,2.53
2023-03-16T01:46:31.528Z,3.10
2023-03-16T01:54:10.960Z,2.72
2023-03-16T02:01:47.364Z,2.50
2023-03-16T02:09:24.761Z,2.22
2023-03-16T02:16:59.285Z,2.20
2023-03-16T02:24:34.605Z,2.30
2023-03-16T02:32:10.518Z,2.97
2023-03-16T02:39:44.794Z,2.40
2023-03-16T02:47:28.292Z,2.70
2023-03-16T02:55:02.353Z,2.13
2023-03-16T03:10:12.113Z,1.92
2023-03-16T03:17:47.747Z,1.70
2023-03-16T03:25:23.248Z,1.90
2023-03-16T03:32:58.330Z,2.28
2023-03-16T03:40:32.177Z,2.05
2023-03-16T03:48:07.644Z,2.80
2023-03-16T03:55:41.432Z,1.98
2023-03-16T04:03:17.823Z,2.03
2023-03-16T04:10:52.116Z,2.17
2023-03-16T04:18:27.631Z,1.45
2023-03-16T04:26:02.132Z,2.17
2023-03-16T04:33:39.189Z,1.80
2023-03-16T04:41:13.283Z,3.03
2023-03-16T04:48:48.801Z,2.30
2023-03-16T04:56:24.281Z,2.05
2023-03-16T05:03:59.882Z,2.88
2023-03-16T05:11:33.761Z,1.80
2023-03-16T05:19:09.148Z,2.10
2023-03-16T05:26:43.163Z,2.03
2023-03-16T05:49:27.335Z,2.03
2023-03-16T05:57:01.267Z,1.80
2023-03-16T06:12:11.091Z,2.20
2023-03-16T06:19:46.436Z,2.30
2023-03-16T06:27:21.622Z,1.95
2023-03-16T06:34:59.597Z,2.38
2023-03-16T06:42:33.801Z,2.75
2023-03-16T06:50:10.777Z,1.98
2023-03-16T06:57:44.704Z,2.35
2023-03-16T07:05:20.227Z,2.55
2023-03-16T07:12:55.346Z,2.38
2023-03-16T07:20:32.892Z,1.80
2023-03-16T07:28:07.095Z,2.17
2023-03-16T07:43:16.718Z,1.75
2023-03-16T07:50:52.391Z,2.35
2023-03-16T07:58:26.567Z,1.55
2023-03-16T08:06:02.019Z,1.23
2023-03-16T08:21:30.391Z,1.65
2023-03-16T08:29:04.570Z,1.42
2023-03-16T08:36:40.018Z,1.67
2023-03-16T08:44:14.345Z,1.00
2023-03-16T08:51:49.847Z,0.95
2023-03-16T08:59:30.088Z,1.08
2023-03-16T09:07:09.233Z,1.17
2023-03-16T09:14:43.786Z,1.10
2023-03-16T09:22:19.901Z,1.43
2023-03-16T09:29:56.381Z,2.03
2023-03-16T09:37:44.528Z,1.13
2023-03-16T09:45:25.413Z,1.35
2023-03-16T09:53:05.887Z,1.40
2023-03-16T10:09:28.671Z,1.50
2023-03-16T10:17:08.515Z,1.60
2023-03-16T10:24:53.881Z,1.33
2023-03-16T10:32:34.746Z,1.10
2023-03-16T10:40:12.996Z,0.93
2023-03-16T10:47:47.751Z,0.90
2023-03-16T11:03:01.555Z,0.95
2023-03-16T11:10:49.437Z,0.70
2023-03-16T11:18:31.794Z,0.73
2023-03-16T11:26:17.629Z,0.73
2023-03-16T11:33:54.545Z,1.25
2023-03-16T11:41:40.590Z,0.93
2023-03-16T11:49:33.732Z,0.70
2023-03-16T11:57:25.607Z,0.80
2023-03-16T12:05:24.957Z,1.65
2023-03-16T12:13:15.903Z,1.10
2023-03-16T12:20:56.341Z,0.60
2023-03-16T12:28:33.669Z,0.75
2023-03-16T12:36:28.886Z,1.23
2023-03-16T12:44:13.326Z,0.90
2023-03-16T12:51:49.160Z,1.33
2023-03-16T13:07:21.853Z,0.70
2023-03-16T13:14:57.165Z,0.60
2023-03-16T13:22:33.628Z,0.60
2023-03-16T13:30:20.447Z,0.80
2023-03-16T13:37:54.641Z,0.57
2023-03-16T13:45:34.569Z,0.73
2023-03-16T13:53:17.384Z,0.40
2023-03-16T14:00:57.422Z,0.52
2023-03-16T14:08:32.605Z,0.65
2023-03-16T14:16:16.864Z,0.60
2023-03-16T14:23:55.159Z,0.90
2023-03-16T14:31:38.821Z,0.60
2023-03-16T14:39:14.720Z,1.13
2023-03-16T14:46:50.878Z,1.08
2023-03-16T14:54:26.173Z,0.50
2023-03-16T15:02:06.266Z,0.52
2023-03-16T15:17:37.761Z,0.60
2023-03-16T15:33:19.582Z,0.35
2023-03-16T15:40:54.596Z,0.68
2023-03-16T15:48:30.288Z,0.65
2023-03-16T15:56:07.255Z,0.80
2023-03-16T16:03:43.132Z,1.08
2023-03-16T16:11:19.299Z,0.60
2023-03-16T16:18:54.694Z,0.60
2023-03-16T16:26:54.109Z,0.50
2023-03-16T16:34:29.894Z,0.63
2023-03-16T16:42:04.405Z,0.60
2023-03-16T16:49:40.280Z,0.60
2023-03-16T17:05:17.675Z,0.98
2023-03-16T17:12:53.680Z,0.80
2023-03-16T17:20:30.323Z,1.00
2023-03-16T17:28:04.204Z,0.68
2023-03-16T17:35:41.101Z,0.90
2023-03-16T17:43:16.364Z,0.80
2023-03-16T17:50:52.874Z,0.90
2023-03-16T17:58:31.625Z,1.00
2023-03-16T18:06:07.814Z,1.38
2023-03-16T18:13:42.416Z,1.25
2023-03-16T18:21:23.565Z,1.30
2023-03-16T18:28:58.197Z,1.73
2023-03-16T18:36:35.356Z,1.60
2023-03-16T18:52:29.592Z,1.75
2023-03-16T19:00:03.623Z,1.83
2023-03-16T19:07:41.608Z,1.90
2023-03-16T19:15:21.830Z,1.73
2023-03-16T19:23:03.392Z,1.42
2023-03-16T19:30:37.452Z,1.65
2023-03-16T19:46:04.188Z,1.40
2023-03-16T19:53:39.927Z,1.93
2023-03-16T20:01:19.791Z,1.98
2023-03-16T20:08:55.143Z,1.40
2023-03-16T20:16:31.198Z,1.50
2023-03-16T20:24:15.447Z,1.33
2023-03-16T20:31:49.769Z,1.37
2023-03-16T20:39:25.264Z,1.30
2023-03-16T20:46:59.152Z,1.42
2023-03-16T20:54:34.503Z,1.17
2023-03-16T21:02:27.318Z,1.25
2023-03-16T21:17:59.254Z,2.00
2023-03-16T21:25:41.548Z,1.88
2023-03-16T21:33:29.984Z,2.65
2023-03-16T21:41:05.586Z,2.22
2023-03-16T21:48:41.309Z,2.50
2023-03-16T21:56:18.692Z,4.63
2023-03-16T22:03:54.739Z,3.65
2023-03-16T22:11:31.527Z,3.28
2023-03-16T22:19:06.451Z,3.55
2023-03-16T22:26:41.736Z,3.60
2023-03-16T22:34:27.075Z,3.35
2023-03-16T22:42:02.278Z,3.42
2023-03-16T22:49:36.159Z,3.92
2023-03-16T22:57:14.894Z,3.70
2023-03-16T23:04:48.839Z,3.53
2023-03-16T23:20:22.583Z,3.20
2023-03-16T23:27:59.872Z,2.88
2023-03-16T23:35:34.143Z,2.97
2023-03-16T23:43:10.367Z,3.20
2023-03-16T23:50:45.434Z,3.03
2023-03-16T23:58:20.716Z,3.10
